Terminal Aerodrome Forecast
Issued by NWS Memphis, TN

Home | Current Version | Previous Version | Text Only | Print | Product List | Glossary On
Versions: 1 2 3 4 5 6 7 8 9 10 11 12 13 14 15 16 17
283
FTUS44 KMEG 240530
TAFMKL
TAF
KMKL 240530Z 2406/2506 VRB03KT P6SM BKN250
      TEMPO 2408/2412 00000KT 3SM BR
     FM241800 21004KT P6SM VCTS SCT040CB BKN250
     FM250300 22003KT P6SM BKN120=

USA.gov is the U.S. government's official web portal to all federal, state and local government web resources and services.